Terminal Aerodrome Forecast
Issued by NWS

Home | Current Version | Previous Version | Text Only | Print | Product List | Glossary On
Versions: 1 2 3 4 5 6 7 8 9 10 11 12 13 14 15 16 17 18 19
000
FTUS44 KHGX 191730
TAFLBX
TAF
KLBX 191730Z 1918/2018 13009KT P6SM SCT035
     FM200200 VRB03KT P6SM SCT015 SCT250
     FM200900 VRB02KT 4SM BR BKN015
      TEMPO 2010/2012 1SM BR
     FM201500 13010KT P6SM SCT020 SCT250=

USA.gov is the U.S. government's official web portal to all federal, state and local government web resources and services.